sensor_id;sensor_type;location;lat;lon;timestamp;pressure;altitude;pressure_sealevel;temperature;humidity
11017;BME280;54687;50.800;6.772;2023-08-12T00:00:15;90034.16;;;-144.06;28.09
11017;BME280;54687;50.800;6.772;2023-08-12T00:02:44;89884.06;;;-144.06;27.78
11017;BME280;54687;50.800;6.772;2023-08-12T00:05:11;89877.72;;;-144.06;27.92
11017;BME280;54687;50.800;6.772;2023-08-12T00:07:38;89729.75;;;-144.06;27.48
11017;BME280;54687;50.800;6.772;2023-08-12T00:10:07;89695.94;;;-144.06;27.38
11017;BME280;54687;50.800;6.772;2023-08-12T00:12:34;89850.25;;;-144.06;27.68
11017;BME280;54687;50.800;6.772;2023-08-12T00:15:02;89772.03;;;-144.06;27.66
11017;BME280;54687;50.800;6.772;2023-08-12T00:17:31;89733.97;;;-144.06;27.48
11017;BME280;54687;50.800;6.772;2023-08-12T00:19:59;89575.44;;;-144.06;27.29
11017;BME280;54687;50.800;6.772;2023-08-12T00:22:27;89457.06;;;-144.06;27.41
11017;BME280;54687;50.800;6.772;2023-08-12T00:24:55;89440.16;;;-144.06;27.28
11017;BME280;54687;50.800;6.772;2023-08-12T00:27:24;89292.22;;;-144.06;27.25
11017;BME280;54687;50.800;6.772;2023-08-12T00:29:53;89317.56;;;-144.06;27.09
11017;BME280;54687;50.800;6.772;2023-08-12T00:32:23;89239.38;;;-144.06;27.21
11017;BME280;54687;50.800;6.772;2023-08-12T00:35:05;89205.56;;;-144.06;27.18
11017;BME280;54687;50.800;6.772;2023-08-12T00:37:34;89175.97;;;-144.06;27.13
11017;BME280;54687;50.800;6.772;2023-08-12T00:40:01;89175.97;;;-144.06;27.05
11017;BME280;54687;50.800;6.772;2023-08-12T00:42:29;89131.59;;;-144.06;27.21
11017;BME280;54687;50.800;6.772;2023-08-12T00:44:58;89192.88;;;-144.06;27.01
11017;BME280;54687;50.800;6.772;2023-08-12T00:47:25;89104.13;;;-144.06;27.20
11017;BME280;54687;50.800;6.772;2023-08-12T00:49:52;89082.97;;;-144.06;26.91
11017;BME280;54687;50.800;6.772;2023-08-12T00:52:20;89104.13;;;-144.06;27.10
11017;BME280;54687;50.800;6.772;2023-08-12T00:54:46;89129.47;;;-144.06;27.06
11017;BME280;54687;50.800;6.772;2023-08-12T00:57:13;89311.25;;;-144.06;27.23
11017;BME280;54687;50.800;6.772;2023-08-12T00:59:41;89256.28;;;-144.06;27.22
11017;BME280;54687;50.800;6.772;2023-08-12T01:02:10;89112.56;;;-144.06;26.95
11017;BME280;54687;50.800;6.772;2023-08-12T01:04:38;89203.44;;;-144.06;27.26
11017;BME280;54687;50.800;6.772;2023-08-12T01:07:04;89414.81;;;-144.06;27.41
11017;BME280;54687;50.800;6.772;2023-08-12T01:09:33;89655.75;;;-144.06;27.40
11017;BME280;54687;50.800;6.772;2023-08-12T01:12:03;89480.31;;;-144.06;27.46
11017;BME280;54687;50.800;6.772;2023-08-12T01:14:35;89484.56;;;-144.06;27.32
11017;BME280;54687;50.800;6.772;2023-08-12T01:17:05;89484.56;;;-144.06;27.51
11017;BME280;54687;50.800;6.772;2023-08-12T01:19:36;89438.06;;;-144.06;27.37
11017;BME280;54687;50.800;6.772;2023-08-12T01:22:05;89651.53;;;-144.06;27.60
11017;BME280;54687;50.800;6.772;2023-08-12T01:24:37;89837.56;;;-144.06;27.58
11017;BME280;54687;50.800;6.772;2023-08-12T01:27:07;89784.72;;;-144.06;27.46
11017;BME280;54687;50.800;6.772;2023-08-12T01:29:37;89636.75;;;-144.06;27.33
11017;BME280;54687;50.800;6.772;2023-08-12T01:32:11;89679.03;;;-144.06;27.59
11017;BME280;54687;50.800;6.772;2023-08-12T01:34:42;89440.16;;;-144.06;27.37
11017;BME280;54687;50.800;6.772;2023-08-12T01:37:15;89448.63;;;-144.06;27.21
11017;BME280;54687;50.800;6.772;2023-08-12T01:39:45;89421.16;;;-144.06;27.25
11017;BME280;54687;50.800;6.772;2023-08-12T01:42:13;89539.50;;;-144.06;27.19
11017;BME280;54687;50.800;6.772;2023-08-12T01:44:41;89537.41;;;-144.06;27.10
11017;BME280;54687;50.800;6.772;2023-08-12T01:47:09;89662.09;;;-144.06;27.54
11017;BME280;54687;50.800;6.772;2023-08-12T01:49:35;89486.66;;;-144.06;27.09
11017;BME280;54687;50.800;6.772;2023-08-12T01:52:02;89313.34;;;-144.06;27.01
11017;BME280;54687;50.800;6.772;2023-08-12T01:54:29;89486.66;;;-144.06;27.32
11017;BME280;54687;50.800;6.772;2023-08-12T01:57:01;89461.31;;;-144.06;27.11
11017;BME280;54687;50.800;6.772;2023-08-12T01:59:28;89421.16;;;-144.06;27.11
11017;BME280;54687;50.800;6.772;2023-08-12T02:01:54;89328.16;;;-144.06;27.09
11017;BME280;54687;50.800;6.772;2023-08-12T02:04:21;89252.06;;;-144.06;27.08
11017;BME280;54687;50.800;6.772;2023-08-12T02:06:48;89235.16;;;-144.06;26.86
11017;BME280;54687;50.800;6.772;2023-08-12T02:09:15;89237.25;;;-144.06;26.88
11017;BME280;54687;50.800;6.772;2023-08-12T02:11:41;89201.34;;;-144.06;27.06
11017;BME280;54687;50.800;6.772;2023-08-12T02:14:09;89277.41;;;-144.06;27.24
11017;BME280;54687;50.800;6.772;2023-08-12T02:16:36;89146.38;;;-144.06;26.99
11017;BME280;54687;50.800;6.772;2023-08-12T02:19:03;89258.41;;;-144.06;26.86
11017;BME280;54687;50.800;6.772;2023-08-12T02:21:29;89315.47;;;-144.06;26.85
11017;BME280;54687;50.800;6.772;2023-08-12T02:23:56;89285.88;;;-144.06;26.88
11017;BME280;54687;50.800;6.772;2023-08-12T02:26:23;89089.31;;;-144.06;26.88
11017;BME280;54687;50.800;6.772;2023-08-12T02:28:50;89011.13;;;-144.06;26.77
11017;BME280;54687;50.800;6.772;2023-08-12T02:31:17;89290.09;;;-144.06;27.05
11017;BME280;54687;50.800;6.772;2023-08-12T02:33:44;89214.00;;;-144.06;27.03
11017;BME280;54687;50.800;6.772;2023-08-12T02:36:11;89108.34;;;-144.06;26.79
11017;BME280;54687;50.800;6.772;2023-08-12T02:38:37;89053.41;;;-144.06;26.91
11017;BME280;54687;50.800;6.772;2023-08-12T02:41:04;88962.53;;;-144.06;26.72
11017;BME280;54687;50.800;6.772;2023-08-12T02:43:30;88812.47;;;-144.06;26.55
11017;BME280;54687;50.800;6.772;2023-08-12T02:45:57;88892.78;;;-144.06;26.53
11017;BME280;54687;50.800;6.772;2023-08-12T02:48:25;89072.41;;;-144.06;26.86
11017;BME280;54687;50.800;6.772;2023-08-12T02:50:52;89275.31;;;-144.06;26.88
11017;BME280;54687;50.800;6.772;2023-08-12T02:53:19;89353.50;;;-144.06;26.88
11017;BME280;54687;50.800;6.772;2023-08-12T02:55:45;89366.19;;;-144.06;26.91
11017;BME280;54687;50.800;6.772;2023-08-12T02:58:12;89309.13;;;-144.06;26.73
11017;BME280;54687;50.800;6.772;2023-08-12T03:00:40;89290.09;;;-144.06;26.84
11017;BME280;54687;50.800;6.772;2023-08-12T03:03:07;89142.16;;;-144.06;26.62
11017;BME280;54687;50.800;6.772;2023-08-12T03:05:36;89021.69;;;-144.06;26.52
11017;BME280;54687;50.800;6.772;2023-08-12T03:08:03;89285.88;;;-144.06;26.71
11017;BME280;54687;50.800;6.772;2023-08-12T03:10:30;89190.75;;;-144.06;26.69
11017;BME280;54687;50.800;6.772;2023-08-12T03:12:56;89203.44;;;-144.06;26.79
11017;BME280;54687;50.800;6.772;2023-08-12T03:15:23;89129.47;;;-144.06;26.67
11017;BME280;54687;50.800;6.772;2023-08-12T03:17:50;89049.16;;;-144.06;26.58
11017;BME280;54687;50.800;6.772;2023-08-12T03:20:16;89102.00;;;-144.06;26.48
11017;BME280;54687;50.800;6.772;2023-08-12T03:22:44;89080.88;;;-144.06;26.57
11017;BME280;54687;50.800;6.772;2023-08-12T03:25:11;89011.13;;;-144.06;26.67
11017;BME280;54687;50.800;6.772;2023-08-12T03:27:40;89042.81;;;-144.06;26.45
11017;BME280;54687;50.800;6.772;2023-08-12T03:30:07;89059.72;;;-144.06;26.64
11017;BME280;54687;50.800;6.772;2023-08-12T03:32:34;89095.66;;;-144.06;26.50
11017;BME280;54687;50.800;6.772;2023-08-12T03:35:01;89129.47;;;-144.06;26.45
11017;BME280;54687;50.800;6.772;2023-08-12T03:37:28;89188.66;;;-144.06;26.67
11017;BME280;54687;50.800;6.772;2023-08-12T03:39:55;89163.28;;;-144.06;26.76
11017;BME280;54687;50.800;6.772;2023-08-12T03:42:22;89137.94;;;-144.06;26.42
11017;BME280;54687;50.800;6.772;2023-08-12T03:44:49;89099.88;;;-144.06;26.40
11017;BME280;54687;50.800;6.772;2023-08-12T03:47:15;89222.47;;;-144.06;26.67
11017;BME280;54687;50.800;6.772;2023-08-12T03:49:47;89298.56;;;-144.06;26.73
11017;BME280;54687;50.800;6.772;2023-08-12T03:52:13;89391.56;;;-144.06;26.74
11017;BME280;54687;50.800;6.772;2023-08-12T03:54:40;89509.91;;;-144.06;26.84
11017;BME280;54687;50.800;6.772;2023-08-12T03:57:08;89531.06;;;-144.06;26.85
11017;BME280;54687;50.800;6.772;2023-08-12T03:59:34;89704.38;;;-144.06;27.03
11017;BME280;54687;50.800;6.772;2023-08-12T04:02:01;89700.16;;;-144.06;26.64
11017;BME280;54687;50.800;6.772;2023-08-12T04:04:29;89611.38;;;-144.06;26.86
11017;BME280;54687;50.800;6.772;2023-08-12T04:06:55;89681.13;;;-144.06;26.91
11017;BME280;54687;50.800;6.772;2023-08-12T04:09:22;89666.34;;;-144.06;26.73
11017;BME280;54687;50.800;6.772;2023-08-12T04:11:49;89727.63;;;-144.06;26.86
11017;BME280;54687;50.800;6.772;2023-08-12T04:14:17;89605.03;;;-144.06;26.69
11017;BME280;54687;50.800;6.772;2023-08-12T04:16:43;89611.38;;;-144.06;26.59
11017;BME280;54687;50.800;6.772;2023-08-12T04:19:10;89636.75;;;-144.06;26.76
11017;BME280;54687;50.800;6.772;2023-08-12T04:21:36;89586.00;;;-144.06;26.79
11017;BME280;54687;50.800;6.772;2023-08-12T04:24:04;89628.28;;;-144.06;26.80
11017;BME280;54687;50.800;6.772;2023-08-12T04:26:30;89683.25;;;-144.06;26.86
11017;BME280;54687;50.800;6.772;2023-08-12T04:28:57;89679.03;;;-144.06;26.86
11017;BME280;54687;50.800;6.772;2023-08-12T04:31:26;89526.81;;;-144.06;26.63
11017;BME280;54687;50.800;6.772;2023-08-12T04:33:52;89488.78;;;-144.06;26.72
11017;BME280;54687;50.800;6.772;2023-08-12T04:36:19;89505.69;;;-144.06;26.51
11017;BME280;54687;50.800;6.772;2023-08-12T04:38:46;89421.16;;;-144.06;26.50
11017;BME280;54687;50.800;6.772;2023-08-12T04:41:12;89425.38;;;-144.06;26.90
11017;BME280;54687;50.800;6.772;2023-08-12T04:43:39;89448.63;;;-144.06;26.64
11017;BME280;54687;50.800;6.772;2023-08-12T04:46:05;89315.47;;;-144.06;26.72
11017;BME280;54687;50.800;6.772;2023-08-12T04:48:33;89203.44;;;-144.06;26.66
11017;BME280;54687;50.800;6.772;2023-08-12T04:51:00;89082.97;;;-144.06;26.32
11017;BME280;54687;50.800;6.772;2023-08-12T04:53:28;89082.97;;;-144.06;26.45
11017;BME280;54687;50.800;6.772;2023-08-12T04:55:55;89049.16;;;-144.06;26.35
11017;BME280;54687;50.800;6.772;2023-08-12T04:58:22;89095.66;;;-144.06;26.41
11017;BME280;54687;50.800;6.772;2023-08-12T05:00:50;89036.47;;;-144.06;26.37
11017;BME280;54687;50.800;6.772;2023-08-12T05:03:18;88937.16;;;-144.06;26.28
11017;BME280;54687;50.800;6.772;2023-08-12T05:05:49;88854.75;;;-144.06;26.14
11017;BME280;54687;50.800;6.772;2023-08-12T05:08:16;88683.56;;;-144.06;26.03
11017;BME280;54687;50.800;6.772;2023-08-12T05:10:43;88503.94;;;-144.06;26.05
11017;BME280;54687;50.800;6.772;2023-08-12T05:13:09;88421.53;;;-144.06;26.09
11017;BME280;54687;50.800;6.772;2023-08-12T05:15:36;88427.88;;;-144.06;26.04
11017;BME280;54687;50.800;6.772;2023-08-12T05:18:04;88284.19;;;-144.06;25.86
11017;BME280;54687;50.800;6.772;2023-08-12T05:20:30;88256.72;;;-144.06;25.89
11017;BME280;54687;50.800;6.772;2023-08-12T05:22:58;88138.41;;;-144.06;25.88
11017;BME280;54687;50.800;6.772;2023-08-12T05:25:25;87920.78;;;-144.06;25.87
11017;BME280;54687;50.800;6.772;2023-08-12T05:27:51;88043.34;;;-144.06;25.74
11017;BME280;54687;50.800;6.772;2023-08-12T05:30:18;88210.25;;;-144.06;25.79
11017;BME280;54687;50.800;6.772;2023-08-12T05:32:45;88216.59;;;-144.06;25.96
11017;BME280;54687;50.800;6.772;2023-08-12T05:35:11;88301.09;;;-144.06;25.85
11017;BME280;54687;50.800;6.772;2023-08-12T05:37:38;88438.44;;;-144.06;25.78
11017;BME280;54687;50.800;6.772;2023-08-12T05:40:08;88470.16;;;-144.06;25.93
11017;BME280;54687;50.800;6.772;2023-08-12T05:42:35;88533.53;;;-144.06;25.95
11017;BME280;54687;50.800;6.772;2023-08-12T05:45:02;88601.16;;;-144.06;25.96
11017;BME280;54687;50.800;6.772;2023-08-12T05:47:29;88727.94;;;-144.06;26.08
11017;BME280;54687;50.800;6.772;2023-08-12T05:49:57;88837.84;;;-144.06;26.04
11017;BME280;54687;50.800;6.772;2023-08-12T05:52:24;88918.13;;;-144.06;25.91
11017;BME280;54687;50.800;6.772;2023-08-12T05:54:51;88985.75;;;-144.06;25.93
11017;BME280;54687;50.800;6.772;2023-08-12T05:57:19;89000.56;;;-144.06;26.15
11017;BME280;54687;50.800;6.772;2023-08-12T05:59:45;88960.41;;;-144.06;25.92
11017;BME280;54687;50.800;6.772;2023-08-12T06:02:12;89061.84;;;-144.06;25.88
11017;BME280;54687;50.800;6.772;2023-08-12T06:04:38;89019.56;;;-144.06;25.92
11017;BME280;54687;50.800;6.772;2023-08-12T06:07:05;89006.91;;;-144.06;25.85
11017;BME280;54687;50.800;6.772;2023-08-12T06:09:32;89023.81;;;-144.06;25.99
11017;BME280;54687;50.800;6.772;2023-08-12T06:11:58;89319.69;;;-144.06;26.07
11017;BME280;54687;50.800;6.772;2023-08-12T06:14:26;89349.28;;;-144.06;26.13
11017;BME280;54687;50.800;6.772;2023-08-12T06:16:52;89311.25;;;-144.06;26.27
11017;BME280;54687;50.800;6.772;2023-08-12T06:19:19;89218.25;;;-144.06;26.10
11017;BME280;54687;50.800;6.772;2023-08-12T06:21:45;89156.94;;;-144.06;26.03
11017;BME280;54687;50.800;6.772;2023-08-12T06:24:12;89209.78;;;-144.06;25.96
11017;BME280;54687;50.800;6.772;2023-08-12T06:26:38;89205.56;;;-144.06;26.11
11017;BME280;54687;50.800;6.772;2023-08-12T06:29:05;89188.66;;;-144.06;26.11
11017;BME280;54687;50.800;6.772;2023-08-12T06:31:33;89211.91;;;-144.06;26.04
11017;BME280;54687;50.800;6.772;2023-08-12T06:34:00;89125.25;;;-144.06;26.18
11017;BME280;54687;50.800;6.772;2023-08-12T06:36:27;88926.59;;;-144.06;25.90
11017;BME280;54687;50.800;6.772;2023-08-12T06:38:54;88774.44;;;-144.06;25.94
11017;BME280;54687;50.800;6.772;2023-08-12T06:41:21;88639.19;;;-144.06;25.78
11017;BME280;54687;50.800;6.772;2023-08-12T06:43:47;88575.78;;;-144.06;25.83
11017;BME280;54687;50.800;6.772;2023-08-12T06:46:14;88427.88;;;-144.06;25.81
11017;BME280;54687;50.800;6.772;2023-08-12T06:48:42;88064.47;;;-144.06;25.70
11017;BME280;54687;50.800;6.772;2023-08-12T06:51:08;87988.41;;;-144.06;25.63
11017;BME280;54687;50.800;6.772;2023-08-12T06:53:37;87874.31;;;-144.06;25.39
11017;BME280;54687;50.800;6.772;2023-08-12T06:56:04;87855.31;;;-144.06;25.42
11017;BME280;54687;50.800;6.772;2023-08-12T06:58:31;87732.75;;;-144.06;25.39
11017;BME280;54687;50.800;6.772;2023-08-12T07:00:58;87798.25;;;-144.06;25.39
11017;BME280;54687;50.800;6.772;2023-08-12T07:03:25;87988.41;;;-144.06;25.39
11017;BME280;54687;50.800;6.772;2023-08-12T07:05:53;88051.78;;;-144.06;25.40
11017;BME280;54687;50.800;6.772;2023-08-12T07:08:20;87861.63;;;-144.06;25.48
11017;BME280;54687;50.800;6.772;2023-08-12T07:10:47;87523.63;;;-144.06;25.44
11017;BME280;54687;50.800;6.772;2023-08-12T07:13:13;87230.00;;;-144.06;25.28
11017;BME280;54687;50.800;6.772;2023-08-12T07:15:40;87039.91;;;-144.06;25.22
11017;BME280;54687;50.800;6.772;2023-08-12T07:18:06;86974.44;;;-144.06;25.08
11017;BME280;54687;50.800;6.772;2023-08-12T07:20:33;86885.72;;;-144.06;24.97
11017;BME280;54687;50.800;6.772;2023-08-12T07:23:01;87042.00;;;-144.06;25.02
11017;BME280;54687;50.800;6.772;2023-08-12T07:25:28;87033.56;;;-144.06;24.92
11017;BME280;54687;50.800;6.772;2023-08-12T07:27:54;86978.66;;;-144.06;24.97
11017;BME280;54687;50.800;6.772;2023-08-12T07:30:21;86357.75;;;-144.06;24.63
11017;BME280;54687;50.800;6.772;2023-08-12T07:32:48;86074.78;;;-144.06;24.73
11017;BME280;54687;50.800;6.772;2023-08-12T07:35:14;85622.94;;;-144.06;24.61
11017;BME280;54687;50.800;6.772;2023-08-12T07:37:41;85365.34;;;-144.06;24.56
11017;BME280;54687;50.800;6.772;2023-08-12T07:40:10;84900.94;;;-144.06;24.50
11017;BME280;54687;50.800;6.772;2023-08-12T07:42:37;84732.06;;;-144.06;24.46
11017;BME280;54687;50.800;6.772;2023-08-12T07:45:05;83917.41;;;-144.06;24.19
11017;BME280;54687;50.800;6.772;2023-08-12T07:47:32;84069.34;;;-144.06;24.22
11017;BME280;54687;50.800;6.772;2023-08-12T07:49:59;84525.22;;;-144.06;24.27
11017;BME280;54687;50.800;6.772;2023-08-12T07:52:25;84162.22;;;-144.06;24.27
11017;BME280;54687;50.800;6.772;2023-08-12T07:54:52;83503.81;;;-144.06;24.26
11017;BME280;54687;50.800;6.772;2023-08-12T07:57:20;83067.09;;;-144.06;23.90
11017;BME280;54687;50.800;6.772;2023-08-12T07:59:49;82942.59;;;-144.06;23.74
11017;BME280;54687;50.800;6.772;2023-08-12T08:02:16;83170.47;;;-144.06;23.89
11017;BME280;54687;50.800;6.772;2023-08-12T08:04:42;82965.81;;;-144.06;23.89
11017;BME280;54687;50.800;6.772;2023-08-12T08:07:11;83330.81;;;-144.06;23.97
11017;BME280;54687;50.800;6.772;2023-08-12T08:09:37;83081.84;;;-144.06;24.02
11017;BME280;54687;50.800;6.772;2023-08-12T08:12:04;83183.13;;;-144.06;23.94
11017;BME280;54687;50.800;6.772;2023-08-12T08:14:32;82948.94;;;-144.06;23.63
11017;BME280;54687;50.800;6.772;2023-08-12T08:16:59;83062.84;;;-144.06;23.82
11017;BME280;54687;50.800;6.772;2023-08-12T08:19:25;82524.91;;;-144.06;23.64
11017;BME280;54687;50.800;6.772;2023-08-12T08:21:52;82145.25;;;-144.06;23.76
11017;BME280;54687;50.800;6.772;2023-08-12T08:24:19;82197.97;;;-144.06;23.63
11017;BME280;54687;50.800;6.772;2023-08-12T08:26:45;81803.56;;;-144.06;23.43
11017;BME280;54687;50.800;6.772;2023-08-12T08:29:12;81626.44;;;-144.06;23.43
11017;BME280;54687;50.800;6.772;2023-08-12T08:31:40;80774.56;;;-144.06;23.40
11017;BME280;54687;50.800;6.772;2023-08-12T08:34:06;81206.78;;;-144.06;23.38
11017;BME280;54687;50.800;6.772;2023-08-12T08:36:35;80532.09;;;-144.06;23.33
11017;BME280;54687;50.800;6.772;2023-08-12T08:39:02;80686.00;;;-144.06;23.38
11017;BME280;54687;50.800;6.772;2023-08-12T08:41:30;80376.09;;;-144.06;23.30
11017;BME280;54687;50.800;6.772;2023-08-12T08:44:01;80127.34;;;-144.06;23.14
11017;BME280;54687;50.800;6.772;2023-08-12T08:46:29;79931.31;;;-144.06;23.26
11017;BME280;54687;50.800;6.772;2023-08-12T08:48:58;80578.47;;;-144.06;23.20
11017;BME280;54687;50.800;6.772;2023-08-12T08:51:25;81122.44;;;-144.06;23.58
11017;BME280;54687;50.800;6.772;2023-08-12T08:53:53;80654.38;;;-144.06;23.29
11017;BME280;54687;50.800;6.772;2023-08-12T08:56:21;80976.97;;;-144.06;23.33
11017;BME280;54687;50.800;6.772;2023-08-12T08:58:47;79830.16;;;-144.06;23.26
11017;BME280;54687;50.800;6.772;2023-08-12T09:01:15;78190.69;;;-144.06;23.15
11017;BME280;54687;50.800;6.772;2023-08-12T09:03:44;77626.13;;;-144.06;23.14
11017;BME280;54687;50.800;6.772;2023-08-12T09:06:13;76095.13;;;-144.06;22.59
11017;BME280;54687;50.800;6.772;2023-08-12T09:08:41;75861.41;;;-144.06;22.86
11017;BME280;54687;50.800;6.772;2023-08-12T09:11:12;74505.88;;;-144.06;22.71
11017;BME280;54687;50.800;6.772;2023-08-12T09:13:39;73218.16;;;-144.06;22.44
11017;BME280;54687;50.800;6.772;2023-08-12T09:16:06;74034.50;;;-144.06;22.05
11017;BME280;54687;50.800;6.772;2023-08-12T09:18:33;74842.59;;;-144.06;22.19
11017;BME280;54687;50.800;6.772;2023-08-12T09:21:01;75861.41;;;-144.06;22.57
11017;BME280;54687;50.800;6.772;2023-08-12T09:23:34;75061.50;;;-144.06;22.38
11017;BME280;54687;50.800;6.772;2023-08-12T09:26:01;76276.19;;;-144.06;22.24
11017;BME280;54687;50.800;6.772;2023-08-12T09:28:27;73832.50;;;-144.06;22.19
11017;BME280;54687;50.800;6.772;2023-08-12T09:30:55;72469.31;;;-144.06;22.25
11017;BME280;54687;50.800;6.772;2023-08-12T09:33:24;73666.28;;;-144.06;22.03
11017;BME280;54687;50.800;6.772;2023-08-12T09:35:51;74257.53;;;-144.06;21.79
11017;BME280;54687;50.800;6.772;2023-08-12T09:38:18;74674.22;;;-144.06;21.93
11017;BME280;54687;50.800;6.772;2023-08-12T09:40:46;73134.00;;;-144.06;22.19
11017;BME280;54687;50.800;6.772;2023-08-12T09:43:15;74587.94;;;-144.06;21.74
11017;BME280;54687;50.800;6.772;2023-08-12T09:45:44;74699.47;;;-144.06;22.21
11017;BME280;54687;50.800;6.772;2023-08-12T09:48:12;75149.91;;;-144.06;21.79
11017;BME280;54687;50.800;6.772;2023-08-12T09:50:39;76173.03;;;-144.06;22.34
11017;BME280;54687;50.800;6.772;2023-08-12T09:53:06;77049.03;;;-144.06;22.25
11017;BME280;54687;50.800;6.772;2023-08-12T09:55:34;76846.84;;;-144.06;22.20
11017;BME280;54687;50.800;6.772;2023-08-12T09:58:06;77699.88;;;-144.06;22.31
11017;BME280;54687;50.800;6.772;2023-08-12T10:00:33;78197.03;;;-144.06;22.43
11017;BME280;54687;50.800;6.772;2023-08-12T10:03:01;78298.16;;;-144.06;22.42
11017;BME280;54687;50.800;6.772;2023-08-12T10:05:28;78388.75;;;-144.06;22.50
11017;BME280;54687;50.800;6.772;2023-08-12T10:07:58;78654.22;;;-144.06;22.50
11017;BME280;54687;50.800;6.772;2023-08-12T10:10:27;77921.06;;;-144.06;22.47
11017;BME280;54687;50.800;6.772;2023-08-12T10:12:54;76429.91;;;-144.06;22.14
11017;BME280;54687;50.800;6.772;2023-08-12T10:15:23;73731.50;;;-144.06;22.10
11017;BME280;54687;50.800;6.772;2023-08-12T10:17:51;73649.44;;;-144.06;21.84
11017;BME280;54687;50.800;6.772;2023-08-12T10:20:20;73390.66;;;-144.06;21.94
11017;BME280;54687;50.800;6.772;2023-08-12T10:22:47;73104.56;;;-144.06;21.93
11017;BME280;54687;50.800;6.772;2023-08-12T10:25:15;71851.03;;;-144.06;21.74
11017;BME280;54687;50.800;6.772;2023-08-12T10:27:44;71291.69;;;-144.06;21.61
11017;BME280;54687;50.800;6.772;2023-08-12T10:30:12;70892.25;;;-144.06;21.42
11017;BME280;54687;50.800;6.772;2023-08-12T10:32:40;69246.56;;;-144.06;21.37
11017;BME280;54687;50.800;6.772;2023-08-12T10:35:08;69349.53;;;-144.06;21.59
11017;BME280;54687;50.800;6.772;2023-08-12T10:37:35;69196.13;;;-144.06;21.28
11017;BME280;54687;50.800;6.772;2023-08-12T10:40:03;68105.78;;;-144.06;21.33
11017;BME280;54687;50.800;6.772;2023-08-12T10:42:42;67818.00;;;-144.06;21.20
11017;BME280;54687;50.800;6.772;2023-08-12T10:45:11;68597.34;;;-144.06;20.91
11017;BME280;54687;50.800;6.772;2023-08-12T10:47:41;69971.56;;;-144.06;21.35
11017;BME280;54687;50.800;6.772;2023-08-12T10:50:19;75048.88;;;-144.06;21.68
11017;BME280;54687;50.800;6.772;2023-08-12T10:52:46;75187.78;;;-144.06;21.75
11017;BME280;54687;50.800;6.772;2023-08-12T10:55:16;78683.72;;;-144.06;21.88
11017;BME280;54687;50.800;6.772;2023-08-12T10:57:44;80808.28;;;-144.06;22.39
11017;BME280;54687;50.800;6.772;2023-08-12T11:00:13;80513.13;;;-144.06;22.45
11017;BME280;54687;50.800;6.772;2023-08-12T11:02:44;79994.56;;;-144.06;22.44
11017;BME280;54687;50.800;6.772;2023-08-12T11:05:12;79865.97;;;-144.06;22.46
11017;BME280;54687;50.800;6.772;2023-08-12T11:07:40;78215.97;;;-144.06;22.07
11017;BME280;54687;50.800;6.772;2023-08-12T11:10:12;77196.47;;;-144.06;22.14
11017;BME280;54687;50.800;6.772;2023-08-12T11:12:40;76516.25;;;-144.06;21.94
11017;BME280;54687;50.800;6.772;2023-08-12T11:15:08;74918.38;;;-144.06;22.00
11017;BME280;54687;50.800;6.772;2023-08-12T11:17:37;75061.50;;;-144.06;21.92
11017;BME280;54687;50.800;6.772;2023-08-12T11:20:07;73678.91;;;-144.06;21.63
11017;BME280;54687;50.800;6.772;2023-08-12T11:22:36;75806.69;;;-144.06;21.91
11017;BME280;54687;50.800;6.772;2023-08-12T11:25:04;76728.94;;;-144.06;21.83
11017;BME280;54687;50.800;6.772;2023-08-12T11:27:38;76187.75;;;-144.06;22.02
11017;BME280;54687;50.800;6.772;2023-08-12T11:30:06;73779.88;;;-144.06;21.60
11017;BME280;54687;50.800;6.772;2023-08-12T11:32:34;72372.56;;;-144.06;21.68
11017;BME280;54687;50.800;6.772;2023-08-12T11:35:01;70480.22;;;-144.06;21.37
11017;BME280;54687;50.800;6.772;2023-08-12T11:37:30;71476.72;;;-144.06;21.20
11017;BME280;54687;50.800;6.772;2023-08-12T11:39:57;73201.31;;;-144.06;21.34
11017;BME280;54687;50.800;6.772;2023-08-12T11:42:24;75920.38;;;-144.06;21.71
11017;BME280;54687;50.800;6.772;2023-08-12T11:44:51;73081.41;;;-144.06;21.40
11017;BME280;54687;50.800;6.772;2023-08-12T11:47:17;75554.06;;;-144.06;21.83
11017;BME280;54687;50.800;6.772;2023-08-12T11:49:44;76598.38;;;-144.06;21.66
11017;BME280;54687;50.800;6.772;2023-08-12T11:52:11;75246.72;;;-144.06;21.66
11017;BME280;54687;50.800;6.772;2023-08-12T11:54:39;72288.44;;;-144.06;21.74
11017;BME280;54687;50.800;6.772;2023-08-12T11:57:06;74804.72;;;-144.06;21.40
11017;BME280;54687;50.800;6.772;2023-08-12T11:59:33;72582.91;;;-144.06;21.43
11017;BME280;54687;50.800;6.772;2023-08-12T12:02:01;73207.63;;;-144.06;21.65
11017;BME280;54687;50.800;6.772;2023-08-12T12:04:30;71159.25;;;-144.06;21.13
11017;BME280;54687;50.800;6.772;2023-08-12T12:06:57;70297.34;;;-144.06;21.39
11017;BME280;54687;50.800;6.772;2023-08-12T12:09:25;71035.22;;;-144.06;21.06
11017;BME280;54687;50.800;6.772;2023-08-12T12:11:53;70658.91;;;-144.06;21.17
11017;BME280;54687;50.800;6.772;2023-08-12T12:14:20;71802.66;;;-144.06;21.12
11017;BME280;54687;50.800;6.772;2023-08-12T12:16:48;74526.91;;;-144.06;21.42
11017;BME280;54687;50.800;6.772;2023-08-12T12:19:17;75158.31;;;-144.06;21.40
11017;BME280;54687;50.800;6.772;2023-08-12T12:21:45;74063.94;;;-144.06;21.54
11017;BME280;54687;50.800;6.772;2023-08-12T12:24:12;75663.53;;;-144.06;21.76
11017;BME280;54687;50.800;6.772;2023-08-12T12:26:39;74434.31;;;-144.06;21.53
11017;BME280;54687;50.800;6.772;2023-08-12T12:29:08;73853.53;;;-144.06;21.74
11017;BME280;54687;50.800;6.772;2023-08-12T12:31:37;73508.47;;;-144.06;21.74
11017;BME280;54687;50.800;6.772;2023-08-12T12:34:04;72957.31;;;-144.06;21.66
11017;BME280;54687;50.800;6.772;2023-08-12T12:36:31;73230.78;;;-144.06;21.74
11017;BME280;54687;50.800;6.772;2023-08-12T12:38:58;72519.78;;;-144.06;21.37
11017;BME280;54687;50.800;6.772;2023-08-12T12:41:24;72050.78;;;-144.06;21.30